Wetterstation Vordersexau
Wetterdaten: Woche 02.12.13 - 08.12.13 (KW49)
Datum Zeit Temp. A. Feuchte A. Luftdruck Regen Wind Richtung Taupunkt Windchill Windben
02.12.2013 00:00 -1,5 C 86 % 1026,1 hPa 0,0 l/m 0,0 km/h O-SO -3,5 C -1,5 C 0,0 km/h
02.12.2013 01:00 -1,6 C 87 % 1025,8 hPa 0,0 l/m 0,0 km/h SO -3,5 C -1,6 C 0,0 km/h
02.12.2013 02:00 -1,2 C 86 % 1025,8 hPa 0,0 l/m 0,0 km/h SO -3,2 C -1,2 C 0,0 km/h
02.12.2013 03:00 -1,6 C 87 % 1025,8 hPa 0,0 l/m 0,0 km/h O-SO -3,5 C -1,6 C 0,0 km/h
02.12.2013 04:00 -2,3 C 87 % 1025,3 hPa 0,0 l/m 1,3 km/h O-SO -4,2 C -2,3 C 0,7 km/h
02.12.2013 05:00 -2,9 C 86 % 1025,3 hPa 0,0 l/m 0,0 km/h O-SO -4,9 C -2,9 C 0,0 km/h
02.12.2013 06:00 -2,8 C 86 % 1025,2 hPa 0,0 l/m 0,0 km/h O-SO -4,8 C -2,8 C 0,0 km/h
02.12.2013 07:00 -2,5 C 86 % 1025,5 hPa 0,0 l/m 0,0 km/h SO -4,5 C -2,5 C 0,0 km/h
02.12.2013 08:00 -2,4 C 85 % 1025,8 hPa 0,0 l/m 0,0 km/h SO -4,6 C -2,4 C 0,0 km/h
02.12.2013 09:00 3,4 C 80 % 1026,1 hPa 0,0 l/m 0,0 km/h SO 0,3 C 3,4 C 0,0 km/h
02.12.2013 10:00 9,9 C 76 % 1026,2 hPa 0,5 l/m 0,0 km/h W 5,9 C 9,9 C 0,0 km/h
02.12.2013 11:00 12,5 C 64 % 1026,0 hPa 0,0 l/m 0,6 km/h N-NO 5,9 C 12,5 C 0,4 km/h
02.12.2013 12:00 12,4 C 56 % 1025,7 hPa 0,0 l/m 11,7 km/h S 3,9 C 9,4 C 6,5 km/h
02.12.2013 13:00 11,9 C 58 % 1025,2 hPa 0,0 l/m 0,0 km/h N 3,9 C 11,9 C 0,0 km/h
02.12.2013 14:00 13,5 C 53 % 1025,2 hPa 0,0 l/m 3,2 km/h NO 4,1 C 13,5 C 1,8 km/h
02.12.2013 15:00 15,9 C 48 % 1025,2 hPa 0,0 l/m 0,0 km/h O-SO 4,9 C 15,9 C 0,0 km/h
02.12.2013 16:00 11,5 C 52 % 1025,5 hPa 0,0 l/m 0,0 km/h O-SO 2,0 C 11,5 C 0,0 km/h
02.12.2013 17:00 1,8 C 73 % 1025,6 hPa 0,0 l/m 0,0 km/h O-SO -2,5 C 1,8 C 0,0 km/h
02.12.2013 18:00 0,1 C 80 % 1025,7 hPa 0,0 l/m 0,0 km/h NO -2,9 C 0,1 C 0,0 km/h
02.12.2013 19:00 -0,6 C 84 % 1025,8 hPa 0,0 l/m 0,0 km/h O-NO -3,0 C -0,6 C 0,0 km/h
02.12.2013 20:00 -1,2 C 85 % 1026,1 hPa 0,0 l/m 0,0 km/h NO -3,4 C -1,2 C 0,0 km/h
02.12.2013 21:00 -1,9 C 86 % 1025,9 hPa 0,0 l/m 0,0 km/h O-SO -3,9 C -1,9 C 0,0 km/h
02.12.2013 22:00 -2,4 C 86 % 1026,0 hPa 0,0 l/m 0,0 km/h SO -4,4 C -2,4 C 0,0 km/h
02.12.2013 23:00 -3,1 C 86 % 1025,8 hPa 0,0 l/m 0,0 km/h NO -5,1 C -3,1 C 0,0 km/h
03.12.2013 00:00 -2,6 C 86 % 1026,6 hPa 0,0 l/m 0,0 km/h NO -4,6 C -2,6 C 0,0 km/h
03.12.2013 01:00 -2,9 C 86 % 1026,7 hPa 0,0 l/m 0,0 km/h O-SO -4,9 C -2,9 C 0,0 km/h
03.12.2013 02:00 -3,2 C 86 % 1026,9 hPa 0,0 l/m 3,2 km/h NO -5,2 C -3,2 C 1,8 km/h
03.12.2013 03:00 -3,2 C 86 % 1026,8 hPa 0,0 l/m 0,0 km/h NO -5,2 C -3,2 C 0,0 km/h
03.12.2013 04:00 -3,1 C 86 % 1026,7 hPa 0,0 l/m 0,0 km/h SO -5,1 C -3,1 C 0,0 km/h
03.12.2013 05:00 -3,6 C 87 % 1026,9 hPa 0,0 l/m 0,0 km/h O-SO -5,4 C -3,6 C 0,0 km/h
03.12.2013 06:00 -3,7 C 86 % 1026,8 hPa 0,0 l/m 0,0 km/h O-NO -5,7 C -3,7 C 0,0 km/h
03.12.2013 07:00 -4,1 C 86 % 1026,9 hPa 0,0 l/m 0,0 km/h O-SO -6,1 C -4,1 C 0,0 km/h
03.12.2013 08:00 -4,2 C 86 % 1027,0 hPa 0,0 l/m 0,0 km/h O-SO -6,2 C -4,2 C 0,0 km/h
03.12.2013 09:00 0,5 C 84 % 1027,2 hPa 0,0 l/m 0,0 km/h SO -1,9 C 0,5 C 0,0 km/h
03.12.2013 10:00 4,5 C 85 % 1027,6 hPa 0,0 l/m 0,0 km/h W-NW 2,2 C 4,5 C 0,0 km/h
03.12.2013 11:00 8,4 C 72 % 1027,7 hPa 0,0 l/m 0,0 km/h W 3,7 C 8,4 C 0,0 km/h
03.12.2013 12:00 8,4 C 68 % 1027,3 hPa 0,0 l/m 0,0 km/h W-NW 2,8 C 8,4 C 0,0 km/h
03.12.2013 13:00 7,9 C 68 % 1026,2 hPa 0,0 l/m 0,0 km/h W 2,4 C 7,9 C 0,0 km/h
03.12.2013 14:00 8,2 C 66 % 1026,0 hPa 0,0 l/m 0,0 km/h W 2,2 C 8,2 C 0,0 km/h
03.12.2013 15:00 8,1 C 66 % 1026,0 hPa 0,0 l/m 0,6 km/h W-NW 2,1 C 8,1 C 0,4 km/h
03.12.2013 16:00 5,6 C 69 % 1026,1 hPa 0,0 l/m 0,0 km/h W-NW 0,4 C 5,6 C 0,0 km/h
03.12.2013 17:00 -0,4 C 80 % 1026,3 hPa 0,0 l/m 0,0 km/h W-NW -3,4 C -0,4 C 0,0 km/h
03.12.2013 18:00 -2,1 C 84 % 1026,6 hPa 0,0 l/m 0,0 km/h SO -4,4 C -2,1 C 0,0 km/h
03.12.2013 19:00 -2,2 C 86 % 1026,2 hPa 0,0 l/m 0,0 km/h SO -4,2 C -2,2 C 0,0 km/h
03.12.2013 20:00 -3,1 C 86 % 1026,2 hPa 0,0 l/m 0,0 km/h SO -5,1 C -3,1 C 0,0 km/h
03.12.2013 21:00 -3,2 C 86 % 1026,4 hPa 0,0 l/m 0,0 km/h SO -5,2 C -3,2 C 0,0 km/h
03.12.2013 22:00 -3,8 C 87 % 1026,4 hPa 0,0 l/m 0,0 km/h SO -5,6 C -3,8 C 0,0 km/h
03.12.2013 23:00 -3,7 C 87 % 1026,1 hPa 0,0 l/m 0,0 km/h SO -5,5 C -3,7 C 0,0 km/h
04.12.2013 00:00 -4,4 C 87 % 1026,1 hPa 0,0 l/m 0,0 km/h SO -6,2 C -4,4 C 0,0 km/h
04.12.2013 01:00 -4,7 C 87 % 1026,0 hPa 0,0 l/m 0,0 km/h SO -6,5 C -4,7 C 0,0 km/h
04.12.2013 02:00 -4,4 C 87 % 1025,7 hPa 0,0 l/m 0,0 km/h SO -6,2 C -4,4 C 0,0 km/h
04.12.2013 03:00 -4,7 C 87 % 1025,2 hPa 0,0 l/m 0,0 km/h SO -6,5 C -4,7 C 0,0 km/h
04.12.2013 04:00 -4,8 C 87 % 1025,1 hPa 0,0 l/m 0,0 km/h SO -6,6 C -4,8 C 0,0 km/h
04.12.2013 05:00 -4,8 C 87 % 1025,2 hPa 0,0 l/m 0,0 km/h SO -6,6 C -4,8 C 0,0 km/h
04.12.2013 06:00 -4,4 C 87 % 1024,7 hPa 0,0 l/m 0,0 km/h SO -6,2 C -4,4 C 0,0 km/h
04.12.2013 07:00 -4,2 C 87 % 1024,8 hPa 0,0 l/m 0,0 km/h SO -6,0 C -4,2 C 0,0 km/h
04.12.2013 08:00 -4,8 C 87 % 1025,5 hPa 0,0 l/m 0,0 km/h SO -6,6 C -4,8 C 0,0 km/h
04.12.2013 09:00 0,1 C 82 % 1026,0 hPa 0,0 l/m 0,0 km/h SO -2,6 C 0,1 C 0,0 km/h
04.12.2013 10:00 4,3 C 85 % 1026,5 hPa 0,0 l/m 0,0 km/h W-NW 2,0 C 4,3 C 0,0 km/h
04.12.2013 11:00 5,1 C 75 % 1026,6 hPa 0,0 l/m 1,3 km/h W 1,0 C 5,1 C 0,7 km/h
04.12.2013 12:00 6,4 C 73 % 1026,1 hPa 0,0 l/m 0,0 km/h W 1,9 C 6,4 C 0,0 km/h
04.12.2013 13:00 7,3 C 71 % 1025,7 hPa 0,0 l/m 0,0 km/h W 2,4 C 7,3 C 0,0 km/h
04.12.2013 14:00 7,1 C 70 % 1025,9 hPa 0,0 l/m 0,0 km/h W-NW 2,0 C 7,1 C 0,0 km/h
04.12.2013 15:00 6,1 C 69 % 1025,7 hPa 0,0 l/m 0,0 km/h W-NW 0,8 C 6,1 C 0,0 km/h
04.12.2013 16:00 3,1 C 74 % 1026,3 hPa 0,0 l/m 0,0 km/h W-NW -1,1 C 3,1 C 0,0 km/h
04.12.2013 17:00 -0,3 C 83 % 1027,3 hPa 0,0 l/m 0,0 km/h W-NW -2,8 C -0,3 C 0,0 km/h
04.12.2013 18:00 -0,2 C 85 % 1027,8 hPa 0,0 l/m 0,0 km/h W-NW -2,4 C -0,2 C 0,0 km/h
04.12.2013 19:00 0,1 C 85 % 1028,0 hPa 0,0 l/m 0,0 km/h W-NW -2,1 C 0,1 C 0,0 km/h
04.12.2013 20:00 0,3 C 86 % 1028,4 hPa 0,0 l/m 0,0 km/h S -1,8 C 0,3 C 0,0 km/h
04.12.2013 21:00 0,5 C 86 % 1028,0 hPa 0,0 l/m 0,6 km/h W -1,6 C 0,5 C 0,4 km/h
04.12.2013 22:00 0,6 C 86 % 1028,0 hPa 0,0 l/m 0,0 km/h N -1,5 C 0,6 C 0,0 km/h
04.12.2013 23:00 0,4 C 87 % 1028,4 hPa 0,0 l/m 0,0 km/h SO -1,5 C 0,4 C 0,0 km/h
05.12.2013 00:00 0,1 C 86 % 1028,5 hPa 0,0 l/m 0,0 km/h O-SO -2,0 C 0,1 C 0,0 km/h
05.12.2013 01:00 0,5 C 86 % 1028,5 hPa 0,0 l/m 0,0 km/h NO -1,6 C 0,5 C 0,0 km/h
05.12.2013 02:00 1,1 C 86 % 1028,8 hPa 0,0 l/m 0,0 km/h NO -1,0 C 1,1 C 0,0 km/h
05.12.2013 03:00 1,5 C 86 % 1028,6 hPa 0,0 l/m 0,0 km/h NO -0,6 C 1,5 C 0,0 km/h
05.12.2013 04:00 1,7 C 86 % 1027,9 hPa 0,0 l/m 0,0 km/h SO -0,4 C 1,7 C 0,0 km/h
05.12.2013 05:00 1,9 C 86 % 1027,5 hPa 0,0 l/m 0,0 km/h SO -0,2 C 1,9 C 0,0 km/h
05.12.2013 06:00 1,8 C 86 % 1027,1 hPa 0,0 l/m 0,0 km/h O-NO -0,3 C 1,8 C 0,0 km/h
05.12.2013 07:00 1,9 C 86 % 1026,5 hPa 0,0 l/m 0,0 km/h O-NO -0,2 C 1,9 C 0,0 km/h
05.12.2013 08:00 1,8 C 86 % 1026,7 hPa 0,0 l/m 0,0 km/h SO -0,3 C 1,8 C 0,0 km/h
05.12.2013 09:00 2,8 C 86 % 1026,4 hPa 0,0 l/m 0,0 km/h SO 0,7 C 2,8 C 0,0 km/h
05.12.2013 10:00 4,2 C 86 % 1026,0 hPa 0,0 l/m 0,0 km/h W-SW 2,1 C 4,2 C 0,0 km/h
05.12.2013 11:00 6,8 C 80 % 1024,9 hPa 0,0 l/m 0,0 km/h S-SW 3,6 C 6,8 C 0,0 km/h
05.12.2013 12:00 8,9 C 77 % 1024,1 hPa 0,0 l/m 0,0 km/h S-SW 5,1 C 8,9 C 0,0 km/h
05.12.2013 13:00 8,1 C 76 % 1023,3 hPa 0,0 l/m 0,0 km/h SW 4,1 C 8,1 C 0,0 km/h
05.12.2013 14:00 7,9 C 75 % 1022,5 hPa 0,0 l/m 22,7 km/h SW 3,7 C -0,3 C 12,6 km/h
05.12.2013 15:00 7,8 C 75 % 1021,3 hPa 0,0 l/m 21,4 km/h W-SW 3,7 C -0,0 C 11,9 km/h
05.12.2013 16:00 7,1 C 77 % 1021,0 hPa 0,0 l/m 34,3 km/h W 3,3 C -4,4 C 19,1 km/h
05.12.2013 17:00 5,9 C 82 % 1020,7 hPa 0,0 l/m 20,1 km/h S-SW 3,1 C -2,0 C 11,2 km/h
05.12.2013 18:00 5,8 C 84 % 1020,5 hPa 0,0 l/m 32,4 km/h S-SW 3,3 C -5,8 C 18,0 km/h
05.12.2013 19:00 5,9 C 81 % 1019,6 hPa 0,0 l/m 33,7 km/h S-SW 2,9 C -6,0 C 18,7 km/h
05.12.2013 20:00 6,4 C 79 % 1019,5 hPa 0,0 l/m 27,2 km/h W 3,0 C -3,7 C 15,1 km/h
05.12.2013 21:00 6,3 C 79 % 1020,2 hPa 0,0 l/m 34,3 km/h W-SW 2,9 C -5,5 C 19,1 km/h
05.12.2013 22:00 6,1 C 80 % 1020,0 hPa 0,0 l/m 40,2 km/h W-SW 2,9 C -6,9 C 22,3 km/h
05.12.2013 23:00 5,4 C 82 % 1019,7 hPa 0,0 l/m 42,8 km/h SW 2,6 C -8,4 C 23,8 km/h
06.12.2013 00:00 4,9 C 84 % 1019,5 hPa 0,0 l/m 42,1 km/h SW 2,4 C -9,0 C 23,4 km/h
06.12.2013 01:00 4,5 C 86 % 1019,4 hPa 0,0 l/m 16,2 km/h W-SW 2,4 C -2,1 C 9,0 km/h
06.12.2013 02:00 4,4 C 86 % 1019,6 hPa 0,0 l/m 23,3 km/h W-NW 2,3 C -5,2 C 13,0 km/h
06.12.2013 03:00 4,2 C 85 % 1020,2 hPa 0,5 l/m 1,9 km/h N 1,9 C 4,2 C 1,1 km/h
06.12.2013 04:00 3,5 C 84 % 1020,7 hPa 1,6 l/m 13,6 km/h S-SW 1,1 C -2,0 C 7,6 km/h
06.12.2013 05:00 1,3 C 85 % 1021,1 hPa 0,0 l/m 0,0 km/h SW -0,9 C 1,3 C 0,0 km/h
06.12.2013 06:00 1,9 C 84 % 1021,1 hPa 0,0 l/m 0,0 km/h W -0,5 C 1,9 C 0,0 km/h
06.12.2013 07:00 3,1 C 82 % 1021,2 hPa 0,0 l/m 0,0 km/h SW 0,3 C 3,1 C 0,0 km/h
06.12.2013 08:00 3,4 C 80 % 1021,2 hPa 0,0 l/m 0,6 km/h W-SW 0,3 C 3,4 C 0,4 km/h
06.12.2013 09:00 3,9 C 84 % 1021,6 hPa 0,0 l/m 11,7 km/h W-SW 1,4 C -0,3 C 6,5 km/h
06.12.2013 10:00 4,3 C 86 % 1022,3 hPa 0,0 l/m 15,6 km/h W-NW 2,2 C -2,1 C 8,6 km/h
06.12.2013 11:00 5,3 C 81 % 1022,4 hPa 0,0 l/m 17,5 km/h W 2,3 C -1,7 C 9,7 km/h
06.12.2013 12:00 7,5 C 65 % 1022,1 hPa 0,0 l/m 6,5 km/h NW 1,4 C 7,4 C 3,6 km/h
06.12.2013 13:00 6,8 C 59 % 1022,7 hPa 0,0 l/m 0,0 km/h W-NW -0,6 C 6,8 C 0,0 km/h
06.12.2013 14:00 5,8 C 58 % 1023,7 hPa 0,0 l/m 0,6 km/h W-NW -1,8 C 5,8 C 0,4 km/h
06.12.2013 15:00 4,6 C 62 % 1023,7 hPa 0,0 l/m 3,2 km/h NW -2,0 C 4,6 C 1,8 km/h
06.12.2013 16:00 3,6 C 67 % 1024,4 hPa 0,0 l/m 12,3 km/h W-SW -1,9 C -1,0 C 6,8 km/h
06.12.2013 17:00 3,6 C 67 % 1025,1 hPa 0,0 l/m 21,4 km/h W-SW -1,9 C -5,5 C 11,9 km/h
06.12.2013 18:00 3,0 C 71 % 1025,2 hPa 0,0 l/m 3,2 km/h W-SW -1,7 C 3,0 C 1,8 km/h
06.12.2013 19:00 3,0 C 72 % 1025,2 hPa 0,0 l/m 16,8 km/h W -1,5 C -4,3 C 9,4 km/h
06.12.2013 20:00 2,8 C 72 % 1025,6 hPa 0,0 l/m 0,6 km/h W-NW -1,7 C 2,8 C 0,4 km/h
06.12.2013 21:00 2,8 C 75 % 1026,1 hPa 0,0 l/m 3,2 km/h W -1,2 C 2,8 C 1,8 km/h
06.12.2013 22:00 1,4 C 79 % 1026,2 hPa 0,0 l/m 0,0 km/h W-SW -1,8 C 1,4 C 0,0 km/h
06.12.2013 23:00 1,6 C 80 % 1026,9 hPa 0,0 l/m 0,0 km/h W-SW -1,5 C 1,6 C 0,0 km/h
07.12.2013 00:00 1,0 C 82 % 1026,9 hPa 0,0 l/m 0,0 km/h W-SW -1,7 C 1,0 C 0,0 km/h
07.12.2013 01:00 0,8 C 83 % 1027,4 hPa 0,0 l/m 0,0 km/h W-SW -1,8 C 0,8 C 0,0 km/h
07.12.2013 02:00 0,5 C 83 % 1027,5 hPa 0,0 l/m 0,0 km/h N -2,0 C 0,5 C 0,0 km/h
07.12.2013 03:00 0,6 C 84 % 1028,0 hPa 0,0 l/m 0,0 km/h N-NO -1,8 C 0,6 C 0,0 km/h
07.12.2013 04:00 0,7 C 85 % 1027,5 hPa 0,0 l/m 0,0 km/h O-NO -1,5 C 0,7 C 0,0 km/h
07.12.2013 05:00 0,3 C 85 % 1027,7 hPa 0,0 l/m 0,0 km/h NO -1,9 C 0,3 C 0,0 km/h
07.12.2013 06:00 0,7 C 85 % 1028,2 hPa 0,0 l/m 0,0 km/h O-NO -1,5 C 0,7 C 0,0 km/h
07.12.2013 07:00 1,2 C 85 % 1028,0 hPa 0,0 l/m 0,0 km/h SO -1,0 C 1,2 C 0,0 km/h
07.12.2013 08:00 1,6 C 85 % 1028,0 hPa 0,0 l/m 0,0 km/h SW -0,6 C 1,6 C 0,0 km/h
07.12.2013 09:00 3,0 C 80 % 1028,2 hPa 0,0 l/m 0,0 km/h S -0,1 C 3,0 C 0,0 km/h
07.12.2013 10:00 3,3 C 79 % 1028,1 hPa 0,0 l/m 0,0 km/h S 0,0 C 3,3 C 0,0 km/h
07.12.2013 11:00 6,9 C 72 % 1027,9 hPa 0,0 l/m 0,0 km/h W-SW 2,2 C 6,9 C 0,0 km/h
07.12.2013 12:00 7,6 C 63 % 1027,4 hPa 0,0 l/m 8,4 km/h W-SW 1,0 C 6,0 C 4,7 km/h
07.12.2013 13:00 7,6 C 64 % 1026,8 hPa 0,0 l/m 13,0 km/h W-SW 1,2 C 3,2 C 7,2 km/h
07.12.2013 14:00 9,6 C 58 % 1026,1 hPa 0,0 l/m 3,2 km/h W-SW 1,8 C 9,6 C 1,8 km/h
07.12.2013 15:00 7,4 C 65 % 1025,7 hPa 0,0 l/m 0,0 km/h SW 1,3 C 7,4 C 0,0 km/h
07.12.2013 16:00 6,2 C 68 % 1026,0 hPa 0,0 l/m 0,0 km/h W-SW 0,7 C 6,2 C 0,0 km/h
07.12.2013 17:00 5,1 C 73 % 1025,9 hPa 0,0 l/m 0,0 km/h NW 0,7 C 5,1 C 0,0 km/h
07.12.2013 18:00 4,3 C 76 % 1025,7 hPa 0,0 l/m 0,0 km/h NW 0,5 C 4,3 C 0,0 km/h
07.12.2013 19:00 3,6 C 78 % 1025,9 hPa 0,0 l/m 0,0 km/h SO 0,1 C 3,6 C 0,0 km/h
07.12.2013 20:00 3,8 C 80 % 1025,9 hPa 0,0 l/m 0,0 km/h SO 0,7 C 3,8 C 0,0 km/h
07.12.2013 21:00 3,5 C 80 % 1026,0 hPa 0,0 l/m 0,0 km/h SO 0,4 C 3,5 C 0,0 km/h
07.12.2013 22:00 1,8 C 82 % 1026,1 hPa 0,0 l/m 0,0 km/h O -0,9 C 1,8 C 0,0 km/h
07.12.2013 23:00 2,9 C 84 % 1026,5 hPa 0,0 l/m 0,0 km/h O 0,5 C 2,9 C 0,0 km/h
08.12.2013 00:00 2,8 C 84 % 1026,6 hPa 0,0 l/m 0,0 km/h O 0,4 C 2,8 C 0,0 km/h
08.12.2013 01:00 2,8 C 85 % 1026,5 hPa 0,0 l/m 0,0 km/h O-SO 0,5 C 2,8 C 0,0 km/h
08.12.2013 02:00 0,2 C 85 % 1026,4 hPa 0,0 l/m 0,0 km/h O-SO -2,0 C 0,2 C 0,0 km/h
08.12.2013 03:00 -1,1 C 86 % 1026,5 hPa 0,0 l/m 0,0 km/h O -3,1 C -1,1 C 0,0 km/h
08.12.2013 04:00 -2,1 C 87 % 1026,7 hPa 0,0 l/m 0,0 km/h N-NO -4,0 C -2,1 C 0,0 km/h
08.12.2013 05:00 -2,2 C 87 % 1026,4 hPa 0,0 l/m 0,0 km/h N-NO -4,1 C -2,2 C 0,0 km/h
08.12.2013 06:00 -2,2 C 86 % 1026,6 hPa 0,0 l/m 0,0 km/h O -4,2 C -2,2 C 0,0 km/h
08.12.2013 07:00 -0,8 C 86 % 1027,0 hPa 0,0 l/m 0,0 km/h N-NO -2,8 C -0,8 C 0,0 km/h
08.12.2013 08:00 -0,2 C 85 % 1027,1 hPa 0,0 l/m 0,0 km/h NW -2,4 C -0,2 C 0,0 km/h
08.12.2013 09:00 -0,1 C 85 % 1027,3 hPa 0,0 l/m 0,0 km/h N-NO -2,3 C -0,1 C 0,0 km/h
08.12.2013 10:00 2,8 C 84 % 1027,7 hPa 0,0 l/m 0,0 km/h W-NW 0,4 C 2,8 C 0,0 km/h
08.12.2013 11:00 4,2 C 85 % 1027,8 hPa 0,0 l/m 0,0 km/h N-NW 1,9 C 4,2 C 0,0 km/h
08.12.2013 12:00 5,8 C 83 % 1027,6 hPa 0,0 l/m 0,0 km/h O-NO 3,1 C 5,8 C 0,0 km/h
08.12.2013 13:00 8,8 C 75 % 1027,4 hPa 0,0 l/m 0,0 km/h NW 4,6 C 8,8 C 0,0 km/h
08.12.2013 14:00 11,8 C 64 % 1026,8 hPa 0,0 l/m 0,0 km/h N 5,2 C 11,8 C 0,0 km/h
08.12.2013 15:00 9,7 C 65 % 1027,2 hPa 0,0 l/m 0,0 km/h W-NW 3,4 C 9,7 C 0,0 km/h
08.12.2013 16:00 10,6 C 65 % 1027,1 hPa 0,0 l/m 0,0 km/h SO 4,3 C 10,6 C 0,0 km/h
08.12.2013 17:00 2,9 C 79 % 1027,2 hPa 0,0 l/m 0,0 km/h N-NO -0,4 C 2,9 C 0,0 km/h
08.12.2013 18:00 1,8 C 83 % 1027,3 hPa 0,0 l/m 0,0 km/h O-SO -0,8 C 1,8 C 0,0 km/h
08.12.2013 19:00 0,5 C 85 % 1027,5 hPa 0,0 l/m 0,0 km/h O-SO -1,7 C 0,5 C 0,0 km/h
08.12.2013 20:00 -0,1 C 86 % 1028,1 hPa 0,0 l/m 0,0 km/h O-SO -2,2 C -0,1 C 0,0 km/h
08.12.2013 21:00 -0,3 C 86 % 1028,4 hPa 0,0 l/m 0,0 km/h O-SO -2,3 C -0,3 C 0,0 km/h
08.12.2013 22:00 -0,4 C 86 % 1029,0 hPa 0,0 l/m 0,0 km/h O-NO -2,4 C -0,4 C 0,0 km/h
08.12.2013 23:00 -0,8 C 86 % 1029,5 hPa 0,0 l/m 0,0 km/h O -2,8 C -0,8 C 0,0 km/h
Min-Datum _ 04.12.13 02.12.13 06.12.13 - 02.12.13 - 04.12.13 06.12.13 02.12.13
_ Min-Zeit 04:19 15:19 01:19 - 00:19 - 04:19 00:19 00:19
Minimum _ -4,8 C 48 % 1019,4 hPa - 0,0 km/h - -6,6 C -9,0 C 0,0 km/h
Max-Datum _ 02.12.13 02.12.13 08.12.13 06.12.13 05.12.13 - 02.12.13 02.12.13 05.12.13
_ Max-Zeit 15:19 01:19 23:19 04:19 23:19 - 11:19 15:19 23:19
Maximum _ 15,9 C 87 % 1029,5 hPa 1,6 l/m 42,8 km/h
SW
- 5,9 C 15,9 C 23,8 km/h
SW
Durchschnitt _ 2,4 C 80 % 1025,7 hPa #2,6 l/m 3,4 km/h SO -0,8 C 1,3 C 1,9 km/h
www.sexauwetter.de